createdAt,value
2023-04-16T00:00:48.763Z,2.06
2023-04-16T00:01:48.840Z,2.11
2023-04-16T00:02:48.899Z,1.94
2023-04-16T00:04:48.943Z,1.89
2023-04-16T00:06:48.767Z,1.67
2023-04-16T00:07:48.788Z,2.11
2023-04-16T00:08:48.770Z,2.11
2023-04-16T00:09:48.779Z,1.72
2023-04-16T00:10:48.790Z,2.17
2023-04-16T00:11:48.783Z,1.83
2023-04-16T00:13:48.784Z,2.22
2023-04-16T00:15:48.782Z,1.89
2023-04-16T00:17:48.869Z,2.11
2023-04-16T00:18:48.832Z,2.22
2023-04-16T00:19:48.764Z,2.17
2023-04-16T00:20:48.809Z,1.89
2023-04-16T00:22:48.782Z,2
2023-04-16T00:23:48.782Z,2.33
2023-04-16T00:24:48.778Z,1.94
2023-04-16T00:25:48.780Z,1.89
2023-04-16T00:26:48.793Z,2.17
2023-04-16T00:27:48.780Z,2.11
2023-04-16T00:28:48.793Z,1.61
2023-04-16T00:30:48.794Z,2.28
2023-04-16T00:32:48.790Z,2.22
2023-04-16T00:33:48.779Z,2
2023-04-16T00:34:48.777Z,2.17
2023-04-16T00:36:48.815Z,2.17
2023-04-16T00:38:48.784Z,2.39
2023-04-16T00:40:48.766Z,1.89
2023-04-16T00:41:48.770Z,2.17
2023-04-16T00:42:48.841Z,2.11
2023-04-16T00:43:48.783Z,1.89
2023-04-16T00:45:48.831Z,2.11
2023-04-16T00:46:48.789Z,1.89
2023-04-16T00:47:48.800Z,2.22
2023-04-16T00:48:48.792Z,2
2023-04-16T00:49:48.783Z,1.83
2023-04-16T00:50:48.775Z,2.11
2023-04-16T00:51:48.786Z,2
2023-04-16T00:52:48.802Z,1.72
2023-04-16T00:54:48.778Z,1.72
2023-04-16T00:55:48.784Z,2
2023-04-16T00:56:48.775Z,2
2023-04-16T00:57:48.790Z,1.94
2023-04-16T00:58:48.767Z,2.17
2023-04-16T00:59:48.786Z,2.11
2023-04-16T01:00:48.775Z,2.17
2023-04-16T01:01:48.822Z,1.94
2023-04-16T01:02:48.910Z,2
2023-04-16T01:03:48.812Z,2.17
2023-04-16T01:04:48.783Z,2
2023-04-16T01:05:48.771Z,2
2023-04-16T01:06:48.788Z,1.89
2023-04-16T01:08:48.864Z,1.61
2023-04-16T01:10:48.787Z,1.89
2023-04-16T01:11:48.785Z,1.72
2023-04-16T01:12:48.784Z,2.17
2023-04-16T01:13:48.809Z,2
2023-04-16T01:14:48.779Z,2
2023-04-16T01:15:48.787Z,2
2023-04-16T01:16:48.800Z,2
2023-04-16T01:17:48.859Z,2.11
2023-04-16T01:19:48.791Z,1.94
2023-04-16T01:21:48.776Z,2.17
2023-04-16T01:22:48.793Z,1.94
2023-04-16T01:23:48.781Z,1.72
2023-04-16T01:24:48.815Z,1.83
2023-04-16T01:25:48.814Z,1.94
2023-04-16T01:27:48.781Z,2.06
2023-04-16T01:28:48.793Z,1.89
2023-04-16T01:30:48.794Z,2.22
2023-04-16T01:31:48.812Z,2.22
2023-04-16T01:32:48.845Z,2
2023-04-16T01:33:48.797Z,2
2023-04-16T01:34:48.794Z,1.89
2023-04-16T01:35:48.789Z,2.22
2023-04-16T01:37:48.794Z,1.89
2023-04-16T01:38:48.799Z,2.17
2023-04-16T01:39:48.787Z,1.72
2023-04-16T01:40:48.802Z,2
2023-04-16T01:41:48.796Z,2
2023-04-16T01:42:48.783Z,2
2023-04-16T01:43:48.793Z,1.89
2023-04-16T01:44:48.776Z,2.17
2023-04-16T01:45:48.785Z,2
2023-04-16T01:46:48.795Z,1.89
2023-04-16T01:47:48.835Z,2.17
2023-04-16T01:48:48.782Z,2.17
2023-04-16T01:49:48.790Z,1.89
2023-04-16T01:50:48.776Z,2.22
2023-04-16T01:51:48.799Z,2.17
2023-04-16T01:52:48.789Z,1.89
2023-04-16T01:53:48.788Z,2
2023-04-16T01:54:48.782Z,2.11
2023-04-16T01:55:48.778Z,2.28
2023-04-16T01:56:48.826Z,2
2023-04-16T01:58:48.800Z,2.17
2023-04-16T01:59:48.783Z,2.17
2023-04-16T02:00:48.812Z,2.17
2023-04-16T02:01:48.878Z,2
2023-04-16T02:02:48.938Z,1.89
2023-04-16T02:03:49.067Z,2.17
2023-04-16T02:05:48.796Z,1.89
2023-04-16T02:07:48.796Z,2.11
2023-04-16T02:08:48.792Z,1.72
2023-04-16T02:10:48.787Z,1.72
2023-04-16T02:12:48.840Z,2.17
2023-04-16T02:13:48.791Z,1.89
2023-04-16T02:14:48.810Z,2.17
2023-04-16T02:16:48.894Z,1.89
2023-04-16T02:17:48.885Z,1.89
2023-04-16T02:19:48.792Z,1.61
2023-04-16T02:20:48.815Z,1.89
2023-04-16T02:22:48.809Z,1.83
2023-04-16T02:23:48.819Z,1.72
2023-04-16T02:25:48.872Z,2
2023-04-16T02:27:48.823Z,2
2023-04-16T02:28:48.866Z,2.11
2023-04-16T02:29:48.810Z,1.89
2023-04-16T02:30:48.813Z,2
2023-04-16T02:31:48.843Z,2.22
2023-04-16T02:32:48.830Z,2
2023-04-16T02:33:48.823Z,2
2023-04-16T02:34:48.827Z,2
2023-04-16T02:35:48.810Z,2.06
2023-04-16T02:37:48.827Z,1.89
2023-04-16T02:39:48.832Z,1.72
2023-04-16T02:40:48.828Z,1.83
2023-04-16T02:42:48.836Z,1.89
2023-04-16T02:43:48.824Z,1.94
2023-04-16T02:44:48.866Z,1.89
2023-04-16T02:45:48.836Z,2.17
2023-04-16T02:46:48.821Z,2
2023-04-16T02:47:48.875Z,2
2023-04-16T02:49:48.828Z,2
2023-04-16T02:50:48.818Z,2.17
2023-04-16T02:51:48.834Z,2
2023-04-16T02:52:48.888Z,2.17
2023-04-16T02:54:48.850Z,2.28
2023-04-16T02:56:48.838Z,1.89
2023-04-16T02:57:48.857Z,2
2023-04-16T02:58:48.833Z,2.22
2023-04-16T02:59:48.827Z,2
2023-04-16T03:00:48.880Z,2.17
2023-04-16T03:02:49.040Z,2
2023-04-16T03:03:48.844Z,1.67
2023-04-16T03:04:48.864Z,2
2023-04-16T03:06:48.871Z,2.17
2023-04-16T03:08:48.861Z,2.17
2023-04-16T03:09:48.854Z,2.22
2023-04-16T03:10:48.874Z,2.33
2023-04-16T03:11:48.867Z,2
2023-04-16T03:12:48.877Z,2.17
2023-04-16T03:13:48.847Z,2
2023-04-16T03:14:48.857Z,2.39
2023-04-16T03:15:48.880Z,2
2023-04-16T03:16:48.878Z,2.22
2023-04-16T03:18:48.853Z,2
2023-04-16T03:19:48.853Z,2.22
2023-04-16T03:20:48.860Z,1.94
2023-04-16T03:21:48.865Z,1.94
2023-04-16T03:22:48.859Z,1.89
2023-04-16T03:23:48.876Z,2.17
2023-04-16T03:24:48.859Z,1.94
2023-04-16T03:25:48.876Z,1.61
2023-04-16T03:27:48.876Z,1.67
2023-04-16T03:29:48.883Z,1.72
2023-04-16T03:30:48.885Z,2.11
2023-04-16T03:32:48.933Z,2.06
2023-04-16T03:33:48.876Z,2.17
2023-04-16T03:34:48.879Z,2.17
2023-04-16T03:35:48.881Z,1.89
2023-04-16T03:36:48.882Z,1.72
2023-04-16T03:38:48.891Z,1.89
2023-04-16T03:40:48.875Z,1.94
2023-04-16T03:41:48.882Z,1.89
2023-04-16T03:42:48.944Z,2
2023-04-16T03:44:48.896Z,1.72
2023-04-16T03:46:48.972Z,1.83
2023-04-16T03:47:48.894Z,2.17
2023-04-16T03:48:48.927Z,2.06
2023-04-16T03:50:48.899Z,2.17
2023-04-16T03:51:48.915Z,1.89
2023-04-16T03:52:48.904Z,1.67
2023-04-16T03:53:48.905Z,2.11
2023-04-16T03:54:48.898Z,1.72
2023-04-16T03:56:48.925Z,1.83
2023-04-16T03:57:48.900Z,2
2023-04-16T03:58:48.898Z,1.89
2023-04-16T03:59:48.918Z,2
2023-04-16T04:01:49.020Z,2.11
2023-04-16T04:02:49.103Z,1.89
2023-04-16T04:03:49.173Z,1.89
2023-04-16T04:04:49.014Z,2.11
2023-04-16T04:05:48.915Z,1.83
2023-04-16T04:06:48.900Z,1.94
2023-04-16T04:07:48.925Z,2
2023-04-16T04:08:48.903Z,1.83
2023-04-16T04:09:48.907Z,1.94
2023-04-16T04:10:48.921Z,2.11
2023-04-16T04:12:48.919Z,2.06
2023-04-16T04:13:48.915Z,1.72
2023-04-16T04:14:48.908Z,2
2023-04-16T04:15:48.952Z,1.89
2023-04-16T04:16:48.930Z,2
2023-04-16T04:18:48.947Z,1.89
2023-04-16T04:20:00.267Z,2.17
2023-04-16T04:20:48.964Z,2
2023-04-16T04:21:48.923Z,1.89
2023-04-16T04:22:48.924Z,1.89
2023-04-16T04:23:48.937Z,2
2023-04-16T04:24:48.935Z,2
2023-04-16T04:25:48.974Z,2.17
2023-04-16T04:26:48.945Z,2
2023-04-16T04:27:48.921Z,1.94
2023-04-16T04:28:48.933Z,2
2023-04-16T04:29:48.929Z,1.94
2023-04-16T04:30:48.944Z,2
2023-04-16T04:31:48.997Z,1.94
2023-04-16T04:32:48.960Z,1.89
2023-04-16T04:33:48.950Z,2.11
2023-04-16T04:35:48.934Z,2.17
2023-04-16T04:36:48.969Z,2.17
2023-04-16T04:37:48.927Z,1.89
2023-04-16T04:38:48.946Z,2.11
2023-04-16T04:39:48.950Z,2.17
2023-04-16T04:41:48.940Z,2.28
2023-04-16T04:44:48.945Z,2.11
2023-04-16T04:45:48.980Z,1.89
2023-04-16T04:47:49.015Z,1.89
2023-04-16T04:49:48.942Z,1.89
2023-04-16T04:50:48.967Z,2.17
2023-04-16T04:51:48.959Z,2.17
2023-04-16T04:52:48.977Z,2.17
2023-04-16T04:53:48.947Z,2.17
2023-04-16T04:54:48.956Z,2.17
2023-04-16T04:56:48.962Z,2.28
2023-04-16T04:58:48.959Z,2.22
2023-04-16T04:59:48.954Z,2
2023-04-16T05:00:49.000Z,2.56
2023-04-16T05:01:48.999Z,2.28
2023-04-16T05:02:49.066Z,2.17
2023-04-16T05:03:48.997Z,2.61
2023-04-16T05:04:48.989Z,2.28
2023-04-16T05:05:48.966Z,2.17
2023-04-16T05:06:48.966Z,2.28
2023-04-16T05:07:48.981Z,2.61
2023-04-16T05:08:48.997Z,2.22
2023-04-16T05:10:48.980Z,2.28
2023-04-16T05:11:48.972Z,2.17
2023-04-16T05:12:49.182Z,2.28
2023-04-16T05:13:48.979Z,2.44
2023-04-16T05:14:48.986Z,2.17
2023-04-16T05:15:49.040Z,2.44
2023-04-16T05:17:49.024Z,2.17
2023-04-16T05:19:49.002Z,2.44
2023-04-16T05:20:48.978Z,2.44
2023-04-16T05:21:48.975Z,2.61
2023-04-16T05:22:48.999Z,2.83
2023-04-16T05:23:49.000Z,2.61
2023-04-16T05:24:49.014Z,2.72
2023-04-16T05:26:49.015Z,2.72
2023-04-16T05:27:48.973Z,2.61
2023-04-16T05:28:48.994Z,2.72
2023-04-16T05:29:48.997Z,3
2023-04-16T05:30:49.040Z,2.89
2023-04-16T05:31:48.983Z,2.61
2023-04-16T05:32:49.002Z,3
2023-04-16T05:33:48.988Z,3
2023-04-16T05:34:48.996Z,2.72
2023-04-16T05:35:48.992Z,2.72
2023-04-16T05:36:49.015Z,2.83
2023-04-16T05:37:48.989Z,2.61
2023-04-16T05:38:49.011Z,2.72
2023-04-16T05:39:49.005Z,2.72
2023-04-16T05:40:49.026Z,2.72
2023-04-16T05:42:49.011Z,2.72
2023-04-16T05:44:49.007Z,2.61
2023-04-16T05:45:49.016Z,2.44
2023-04-16T05:46:49.006Z,2.72
2023-04-16T05:47:49.024Z,2.94
2023-04-16T05:48:49.010Z,3
2023-04-16T05:49:49.054Z,3
2023-04-16T05:51:50.700Z,3
2023-04-16T05:52:49.024Z,3
2023-04-16T05:53:49.026Z,2.89
2023-04-16T05:55:49.009Z,2.83
2023-04-16T05:56:49.039Z,2.61
2023-04-16T05:57:49.004Z,2.61
2023-04-16T05:58:49.007Z,2.61
2023-04-16T05:59:49.017Z,2.83
2023-04-16T06:00:49.025Z,2.83
2023-04-16T06:01:49.015Z,3
2023-04-16T06:02:49.200Z,2.72
2023-04-16T06:03:49.175Z,2.61
2023-04-16T06:04:49.008Z,2.44
2023-04-16T06:05:49.087Z,2.89
2023-04-16T06:06:49.008Z,3.33
2023-04-16T06:07:49.033Z,3.44
2023-04-16T06:08:49.023Z,3.56
2023-04-16T06:09:49.017Z,3.44
2023-04-16T06:10:49.034Z,3.44
2023-04-16T06:12:49.037Z,3.44
2023-04-16T06:13:49.016Z,3.44
2023-04-16T06:14:49.016Z,3.44
2023-04-16T06:15:49.021Z,3.44
2023-04-16T06:16:49.047Z,3.33
2023-04-16T06:17:49.057Z,3.33
2023-04-16T06:19:49.021Z,3.17
2023-04-16T06:20:49.013Z,3.44
2023-04-16T06:21:49.020Z,3.28
2023-04-16T06:22:49.032Z,3.44
2023-04-16T06:24:49.032Z,3.44
2023-04-16T06:25:49.026Z,3.44
2023-04-16T06:26:49.066Z,3.61
2023-04-16T06:28:49.046Z,3.44
2023-04-16T06:30:49.026Z,3.72
2023-04-16T06:31:49.083Z,3
2023-04-16T06:32:49.059Z,3.72
2023-04-16T06:33:49.041Z,3.72
2023-04-16T06:35:49.033Z,3.72
2023-04-16T06:37:49.034Z,3.83
2023-04-16T06:38:49.101Z,4
2023-04-16T06:39:49.027Z,3.83
2023-04-16T06:40:49.023Z,4
2023-04-16T06:41:49.046Z,3.83
2023-04-16T06:42:49.039Z,3.83
2023-04-16T06:43:49.023Z,3.83
2023-04-16T06:44:49.059Z,3.72
2023-04-16T06:45:49.034Z,3.56
2023-04-16T06:46:49.073Z,4.17
2023-04-16T06:47:49.067Z,4
2023-04-16T06:48:49.031Z,4.17
2023-04-16T06:49:49.054Z,4.28
2023-04-16T06:50:49.034Z,4.39
2023-04-16T06:51:49.076Z,3.56
2023-04-16T06:53:49.053Z,3.83
2023-04-16T06:55:49.046Z,3.83
2023-04-16T06:56:49.046Z,4.17
2023-04-16T06:58:49.051Z,3.83
2023-04-16T07:00:49.133Z,4
2023-04-16T07:01:49.141Z,4.22
2023-04-16T07:02:49.181Z,4.17
2023-04-16T07:03:49.273Z,4.28
2023-04-16T07:05:49.066Z,4.44
2023-04-16T07:06:49.066Z,4.44
2023-04-16T07:07:49.075Z,4.56
2023-04-16T07:08:49.053Z,4.17
2023-04-16T07:09:49.075Z,4.56
2023-04-16T07:11:49.074Z,4.44
2023-04-16T07:12:49.075Z,4.56
2023-04-16T07:14:49.071Z,4.44
2023-04-16T07:15:49.073Z,4
2023-04-16T07:16:49.107Z,4.72
2023-04-16T07:17:49.123Z,4.72
2023-04-16T07:19:49.100Z,4.94
2023-04-16T07:20:49.081Z,5.17
2023-04-16T07:22:49.079Z,4.72
2023-04-16T07:23:49.075Z,4.44
2023-04-16T07:24:49.082Z,5.39
2023-04-16T07:25:49.083Z,5.33
2023-04-16T07:26:49.130Z,5.17
2023-04-16T07:27:49.075Z,5.61
2023-04-16T07:28:49.079Z,6.11
2023-04-16T07:29:49.080Z,6
2023-04-16T07:30:49.083Z,5.61
2023-04-16T07:31:49.106Z,5.39
2023-04-16T07:32:49.133Z,5.17
2023-04-16T07:33:49.091Z,5.61
2023-04-16T07:34:49.103Z,5.17
2023-04-16T07:35:49.080Z,5.44
2023-04-16T07:36:49.113Z,5.72
2023-04-16T07:37:49.092Z,5.44
2023-04-16T07:39:49.096Z,5.61
2023-04-16T07:40:49.093Z,5.33
2023-04-16T07:41:49.080Z,5.67
2023-04-16T07:42:49.082Z,5.44
2023-04-16T07:43:49.108Z,5.22
2023-04-16T07:44:49.085Z,5.39
2023-04-16T07:45:49.109Z,5.72
2023-04-16T07:46:49.119Z,5.83
2023-04-16T07:47:49.102Z,5.83
2023-04-16T07:48:49.110Z,6
2023-04-16T07:50:49.109Z,6.28
2023-04-16T07:52:49.103Z,5.94
2023-04-16T07:54:49.118Z,5.94
2023-04-16T07:55:49.102Z,6.22
2023-04-16T07:56:49.092Z,6.22
2023-04-16T07:58:49.109Z,6.22
2023-04-16T07:59:49.101Z,6.22
2023-04-16T08:01:49.112Z,5.78
2023-04-16T08:03:49.204Z,5.78
2023-04-16T08:04:49.198Z,5.67
2023-04-16T08:06:49.098Z,6.06
2023-04-16T08:07:49.101Z,6.39
2023-04-16T08:08:49.093Z,6.22
2023-04-16T08:09:49.094Z,6.06
2023-04-16T08:10:49.106Z,6.22
2023-04-16T08:11:49.167Z,6.39
2023-04-16T08:12:49.101Z,6.22
2023-04-16T08:13:49.095Z,6.22
2023-04-16T08:14:49.102Z,6.22
2023-04-16T08:15:49.112Z,6.22
2023-04-16T08:16:49.114Z,6.06
2023-04-16T08:18:49.113Z,6.67
2023-04-16T08:19:49.120Z,6.5
2023-04-16T08:20:49.131Z,6.06
2023-04-16T08:22:49.105Z,6.06
2023-04-16T08:23:49.109Z,6.39
2023-04-16T08:25:49.263Z,6.5
2023-04-16T08:26:49.153Z,6.5
2023-04-16T08:27:49.110Z,6.39
2023-04-16T08:28:49.116Z,6.39
2023-04-16T08:29:49.121Z,6.78
2023-04-16T08:30:49.113Z,6.94
2023-04-16T08:31:49.263Z,6.39
2023-04-16T08:32:50.204Z,7.11
2023-04-16T08:34:49.133Z,6.78
2023-04-16T08:36:49.150Z,6.67
2023-04-16T08:37:49.115Z,6.67
2023-04-16T08:38:49.117Z,6.67
2023-04-16T08:39:49.144Z,6.5
2023-04-16T08:40:49.128Z,6.5
2023-04-16T08:42:49.133Z,6.67
2023-04-16T08:43:49.128Z,6.39
2023-04-16T08:44:49.388Z,6.94
2023-04-16T08:45:49.136Z,7.11
2023-04-16T08:47:49.308Z,6.94
2023-04-16T08:48:49.117Z,7.5
2023-04-16T08:49:49.152Z,7.22
2023-04-16T08:50:49.133Z,6.67
2023-04-16T08:52:49.164Z,6.67
2023-04-16T08:53:49.123Z,6.5
2023-04-16T08:54:56.430Z,6.78
2023-04-16T08:55:49.140Z,7.11
2023-04-16T08:56:49.135Z,6.94
2023-04-16T08:57:49.143Z,7.11
2023-04-16T08:59:49.138Z,7.5
2023-04-16T09:00:49.133Z,7.5
2023-04-16T09:01:49.238Z,7.22
2023-04-16T09:02:49.381Z,7.22
2023-04-16T09:03:49.277Z,7.78
2023-04-16T09:04:49.174Z,7.5
2023-04-16T09:06:49.136Z,7.94
2023-04-16T09:07:49.140Z,7.39
2023-04-16T09:08:49.157Z,7.5
2023-04-16T09:10:49.138Z,8.28
2023-04-16T09:11:49.149Z,7.94
2023-04-16T09:13:49.159Z,7.94
2023-04-16T09:14:49.157Z,7.94
2023-04-16T09:15:49.133Z,8.28
2023-04-16T09:16:49.160Z,8.28
2023-04-16T09:17:49.302Z,8.78
2023-04-16T09:18:49.161Z,8.11
2023-04-16T09:19:49.152Z,8.39
2023-04-16T09:20:49.184Z,8.5
2023-04-16T09:21:49.144Z,8.5
2023-04-16T09:22:49.154Z,7.94
2023-04-16T09:23:49.181Z,7.94
2023-04-16T09:24:49.192Z,7.78
2023-04-16T09:26:49.165Z,8.39
2023-04-16T09:28:49.163Z,8.61
2023-04-16T09:30:49.173Z,7.78
2023-04-16T09:31:49.171Z,8.28
2023-04-16T09:32:49.191Z,8.5
2023-04-16T09:33:49.176Z,8.28
2023-04-16T09:35:49.162Z,7.94
2023-04-16T09:36:49.190Z,7.39
2023-04-16T09:37:49.163Z,7.78
2023-04-16T09:38:49.174Z,8.11
2023-04-16T09:39:49.161Z,8.94
2023-04-16T09:40:49.197Z,8.78
2023-04-16T09:42:49.176Z,8.61
2023-04-16T09:43:49.170Z,8.39
2023-04-16T09:44:49.183Z,7.78
2023-04-16T09:45:49.191Z,7.67
2023-04-16T09:47:49.224Z,7.5
2023-04-16T09:48:49.177Z,7.11
2023-04-16T09:49:49.180Z,7.5
2023-04-16T09:51:49.183Z,7.5
2023-04-16T09:52:49.185Z,7.5
2023-04-16T09:54:49.180Z,7.5
2023-04-16T09:55:49.177Z,7.5
2023-04-16T09:56:49.196Z,7.94
2023-04-16T09:57:49.173Z,7.94
2023-04-16T09:58:49.183Z,8.11
2023-04-16T10:00:49.186Z,8.28
2023-04-16T10:01:49.306Z,8.28
2023-04-16T10:02:50.583Z,8.28
2023-04-16T10:03:49.335Z,7.78
2023-04-16T10:05:49.190Z,7.78
2023-04-16T10:07:49.201Z,7.5
2023-04-16T10:08:50.117Z,7.94
2023-04-16T10:09:49.187Z,7.78
2023-04-16T10:11:49.193Z,8.28
2023-04-16T10:12:49.234Z,8.28
2023-04-16T10:14:50.360Z,8.28
2023-04-16T10:16:49.243Z,7.94
2023-04-16T10:17:49.211Z,8.39
2023-04-16T10:19:49.193Z,8.5
2023-04-16T10:21:49.201Z,8.39
2023-04-16T10:22:49.193Z,8.78
2023-04-16T10:23:49.213Z,8.39
2023-04-16T10:24:49.210Z,8.39
2023-04-16T10:25:49.253Z,8.28
2023-04-16T10:26:49.202Z,9.06
2023-04-16T10:27:49.246Z,9.22
2023-04-16T10:29:49.226Z,8.94
2023-04-16T10:30:49.227Z,9.06
2023-04-16T10:31:49.197Z,8.78
2023-04-16T10:32:49.279Z,8.78
2023-04-16T10:34:49.208Z,8.39
2023-04-16T10:35:57.822Z,8.61
2023-04-16T10:37:49.217Z,8.78
2023-04-16T10:38:49.223Z,9.06
2023-04-16T10:39:49.201Z,8.78
2023-04-16T10:40:49.223Z,8.78
2023-04-16T10:42:49.215Z,8.78
2023-04-16T10:43:49.207Z,8.78
2023-04-16T10:44:49.243Z,8.78
2023-04-16T10:46:49.287Z,9.67
2023-04-16T10:48:50.548Z,10.11
2023-04-16T10:50:50.385Z,10.56
2023-04-16T10:52:49.271Z,10.39
2023-04-16T10:54:49.218Z,9.67
2023-04-16T10:56:49.228Z,9.39
2023-04-16T10:57:49.223Z,8.94
2023-04-16T10:58:49.234Z,8.78
2023-04-16T11:00:49.242Z,8.78
2023-04-16T11:02:49.316Z,8.61
2023-04-16T11:03:49.398Z,8.61
2023-04-16T11:04:49.579Z,8.78
2023-04-16T11:05:49.211Z,9.78
2023-04-16T11:06:49.246Z,9.78
2023-04-16T11:07:49.774Z,9.5
2023-04-16T11:08:54.359Z,8.94
2023-04-16T11:09:49.221Z,9.39
2023-04-16T11:11:49.223Z,9.22
2023-04-16T11:13:49.224Z,10.39
2023-04-16T11:15:49.214Z,10.67
2023-04-16T11:16:49.234Z,10.56
2023-04-16T11:18:51.219Z,10.11
2023-04-16T11:20:49.234Z,9.22
2023-04-16T11:22:49.250Z,9
2023-04-16T11:23:49.216Z,9.06
2023-04-16T11:24:49.228Z,9.06
2023-04-16T11:25:49.271Z,8.78
2023-04-16T11:27:49.235Z,9
2023-04-16T11:28:49.222Z,9.22
2023-04-16T11:29:49.232Z,8.78
2023-04-16T11:31:49.253Z,8.61
2023-04-16T11:32:49.266Z,9
2023-04-16T11:33:49.227Z,8.78
2023-04-16T11:34:49.242Z,8.83
2023-04-16T11:35:49.224Z,8.94
2023-04-16T11:36:49.404Z,9.22
2023-04-16T11:37:49.251Z,9
2023-04-16T11:38:49.237Z,8.67
2023-04-16T11:39:49.243Z,8.61
2023-04-16T11:40:49.238Z,8
2023-04-16T11:41:49.243Z,8.44
2023-04-16T11:42:49.255Z,8.33
2023-04-16T11:43:49.258Z,8.61
2023-04-16T11:45:49.249Z,8.67
2023-04-16T11:46:49.487Z,8.83
2023-04-16T11:48:49.289Z,9.56
2023-04-16T11:50:49.239Z,9.56
2023-04-16T11:51:49.257Z,9.56
2023-04-16T11:53:49.253Z,9
2023-04-16T11:54:49.255Z,8.83
2023-04-16T11:55:49.247Z,8.83
2023-04-16T11:56:49.259Z,9
2023-04-16T11:57:49.261Z,8.83
2023-04-16T11:58:49.252Z,9
2023-04-16T12:00:01.110Z,8.61
2023-04-16T12:00:49.255Z,8.44
2023-04-16T12:01:49.415Z,8.17
2023-04-16T12:02:49.447Z,8.44
2023-04-16T12:03:49.592Z,8.44
2023-04-16T12:04:49.398Z,8.44
2023-04-16T12:06:49.278Z,8.83
2023-04-16T12:08:49.286Z,8.44
2023-04-16T12:09:49.296Z,8.33
2023-04-16T12:11:49.267Z,8.61
2023-04-16T12:12:49.276Z,8.67
2023-04-16T12:14:49.275Z,8.83
2023-04-16T12:15:49.272Z,8.83
2023-04-16T12:16:49.404Z,8.83
2023-04-16T12:18:49.284Z,9
2023-04-16T12:19:49.286Z,9.17
2023-04-16T12:20:49.313Z,9.72
2023-04-16T12:22:49.307Z,9.89
2023-04-16T12:23:49.281Z,9.44
2023-04-16T12:24:49.285Z,9.89
2023-04-16T12:25:49.300Z,9.28
2023-04-16T12:27:52.280Z,9.44
2023-04-16T12:28:49.283Z,9.44
2023-04-16T12:30:49.329Z,9.17
2023-04-16T12:31:49.330Z,9.89
2023-04-16T12:33:49.299Z,9.72
2023-04-16T12:35:49.296Z,9.28
2023-04-16T12:36:49.320Z,9.44
2023-04-16T12:38:49.292Z,9.44
2023-04-16T12:40:49.314Z,8.83
2023-04-16T12:42:49.307Z,8.83
2023-04-16T12:43:49.307Z,9
2023-04-16T12:44:49.317Z,8.83
2023-04-16T12:46:49.404Z,9
2023-04-16T12:48:49.307Z,8.67
2023-04-16T12:49:49.309Z,8.67
2023-04-16T12:51:49.309Z,8.83
2023-04-16T12:52:49.335Z,8.83
2023-04-16T12:54:49.320Z,8.17
2023-04-16T12:55:49.341Z,9
2023-04-16T12:56:49.316Z,8.83
2023-04-16T12:57:49.317Z,8.67
2023-04-16T12:58:49.313Z,9
2023-04-16T12:59:49.319Z,8.67
2023-04-16T13:00:49.334Z,8.61
2023-04-16T13:01:49.330Z,8.83
2023-04-16T13:02:49.447Z,8.67
2023-04-16T13:04:49.430Z,8.67
2023-04-16T13:05:49.316Z,9
2023-04-16T13:06:49.327Z,8.61
2023-04-16T13:07:49.320Z,8.61
2023-04-16T13:08:49.355Z,8.83
2023-04-16T13:09:49.328Z,8.44
2023-04-16T13:10:49.330Z,8.61
2023-04-16T13:11:49.335Z,9
2023-04-16T13:12:49.336Z,9.17
2023-04-16T13:14:49.328Z,8.83
2023-04-16T13:15:49.409Z,9
2023-04-16T13:16:49.329Z,9.44
2023-04-16T13:17:49.454Z,9.28
2023-04-16T13:18:49.328Z,9.89
2023-04-16T13:19:49.341Z,9.89
2023-04-16T13:20:49.329Z,9.89
2023-04-16T13:21:49.339Z,9.28
2023-04-16T13:22:49.331Z,9.56
2023-04-16T13:23:49.343Z,9.28
2023-04-16T13:24:49.360Z,8.83
2023-04-16T13:25:50.626Z,9
2023-04-16T13:26:49.344Z,9.28
2023-04-16T13:27:49.347Z,9.28
2023-04-16T13:28:49.339Z,9.56
2023-04-16T13:29:49.345Z,9.89
2023-04-16T13:30:49.431Z,9.89
2023-04-16T13:31:49.388Z,9.17
2023-04-16T13:32:49.378Z,9.17
2023-04-16T13:33:49.344Z,8.67
2023-04-16T13:34:49.351Z,9.44
2023-04-16T13:36:49.351Z,10.33
2023-04-16T13:38:49.366Z,9.72
2023-04-16T13:39:49.347Z,9.89
2023-04-16T13:40:49.379Z,10
2023-04-16T13:42:49.375Z,9.44
2023-04-16T13:44:49.371Z,9.72
2023-04-16T13:46:49.417Z,10.17
2023-04-16T13:47:49.383Z,9.44
2023-04-16T13:48:49.358Z,9.56
2023-04-16T13:50:49.357Z,9.89
2023-04-16T13:51:49.359Z,10
2023-04-16T13:52:49.355Z,9.89
2023-04-16T13:53:49.365Z,9.89
2023-04-16T13:55:49.370Z,9.44
2023-04-16T13:56:49.394Z,9.44
2023-04-16T13:58:49.401Z,9.44
2023-04-16T13:59:49.391Z,9.28
2023-04-16T14:00:49.410Z,9
2023-04-16T14:02:49.453Z,9.89
2023-04-16T14:03:49.554Z,9.56
2023-04-16T14:04:49.371Z,9.17
2023-04-16T14:05:49.385Z,9
2023-04-16T14:06:49.387Z,9.56
2023-04-16T14:07:49.388Z,9.17
2023-04-16T14:08:49.377Z,9.17
2023-04-16T14:09:49.372Z,9.44
2023-04-16T14:10:49.372Z,9.17
2023-04-16T14:11:49.440Z,8.83
2023-04-16T14:13:49.388Z,9
2023-04-16T14:14:49.395Z,9.17
2023-04-16T14:15:49.376Z,9.17
2023-04-16T14:16:49.459Z,9
2023-04-16T14:17:49.429Z,8.83
2023-04-16T14:18:49.407Z,9
2023-04-16T14:19:49.384Z,8.83
2023-04-16T14:20:49.397Z,9.17
2023-04-16T14:21:49.404Z,9
2023-04-16T14:23:49.395Z,9
2023-04-16T14:24:49.397Z,9.17
2023-04-16T14:25:49.402Z,9
2023-04-16T14:26:49.425Z,9.17
2023-04-16T14:28:49.422Z,9.28
2023-04-16T14:29:49.397Z,9.17
2023-04-16T14:30:49.399Z,9.17
2023-04-16T14:32:49.418Z,9.17
2023-04-16T14:33:49.421Z,9
2023-04-16T14:34:49.398Z,9
2023-04-16T14:36:49.416Z,9.44
2023-04-16T14:37:49.399Z,9.44
2023-04-16T14:38:49.440Z,9.28
2023-04-16T14:39:49.417Z,9.56
2023-04-16T14:40:49.432Z,9.44
2023-04-16T14:42:49.414Z,9.89
2023-04-16T14:43:49.421Z,9.44
2023-04-16T14:44:49.438Z,9.17
2023-04-16T14:46:49.414Z,9.56
2023-04-16T14:47:49.428Z,9.56
2023-04-16T14:48:49.428Z,9.72
2023-04-16T14:50:49.432Z,9
2023-04-16T14:51:49.413Z,9.28
2023-04-16T14:52:49.422Z,9.44
2023-04-16T14:53:49.421Z,9.44
2023-04-16T14:54:49.409Z,9.44
2023-04-16T14:55:49.418Z,9.44
2023-04-16T14:56:49.435Z,9.44
2023-04-16T14:57:49.411Z,9.17
2023-04-16T14:58:49.450Z,9.44
2023-04-16T14:59:49.425Z,9.89
2023-04-16T15:00:49.446Z,9.72
2023-04-16T15:02:49.473Z,9.56
2023-04-16T15:03:49.522Z,9.89
2023-04-16T15:05:49.429Z,9.89
2023-04-16T15:06:49.905Z,9.44
2023-04-16T15:08:49.429Z,9.72
2023-04-16T15:09:49.436Z,9.44
2023-04-16T15:10:49.450Z,9.28
2023-04-16T15:12:49.438Z,9
2023-04-16T15:13:49.426Z,9.44
2023-04-16T15:14:49.439Z,9.72
2023-04-16T15:15:49.431Z,9.89
2023-04-16T15:16:49.513Z,9.44
2023-04-16T15:18:50.295Z,9.28
2023-04-16T15:19:49.448Z,9.28
2023-04-16T15:20:49.442Z,9.28
2023-04-16T15:21:49.449Z,9.17
2023-04-16T15:22:49.452Z,9.89
2023-04-16T15:23:49.470Z,9.17
2023-04-16T15:25:49.442Z,9.17
2023-04-16T15:27:49.451Z,10.33
2023-04-16T15:28:49.448Z,10.33
2023-04-16T15:29:49.563Z,9.72
2023-04-16T15:30:49.470Z,10
2023-04-16T15:31:49.474Z,9.89
2023-04-16T15:32:49.580Z,9.56
2023-04-16T15:34:49.475Z,11.06
2023-04-16T15:35:49.460Z,10.83
2023-04-16T15:36:49.478Z,11.17
2023-04-16T15:37:49.471Z,10.67
2023-04-16T15:38:49.461Z,11.11
2023-04-16T15:39:49.460Z,11.06
2023-04-16T15:42:00.329Z,11.83
2023-04-16T15:42:49.481Z,11.83
2023-04-16T15:44:49.482Z,10.44
2023-04-16T15:45:49.505Z,11.61
2023-04-16T15:46:49.486Z,13.06
2023-04-16T15:47:49.528Z,12.28
2023-04-16T15:48:49.490Z,13.33
2023-04-16T15:50:49.482Z,13.33
2023-04-16T15:51:49.469Z,13.67
2023-04-16T15:52:49.461Z,12.56
2023-04-16T15:54:49.475Z,10.72
2023-04-16T15:56:49.469Z,9.89
2023-04-16T15:57:49.487Z,9.89
2023-04-16T15:58:49.471Z,10.61
2023-04-16T16:00:03.418Z,10
2023-04-16T16:00:49.485Z,9.89
2023-04-16T16:01:49.592Z,9.44
2023-04-16T16:03:49.634Z,9.44
2023-04-16T16:04:49.555Z,9
2023-04-16T16:06:49.469Z,9.17
2023-04-16T16:07:49.472Z,8.83
2023-04-16T16:08:49.464Z,8.61
2023-04-16T16:09:49.473Z,8.44
2023-04-16T16:10:49.501Z,8.61
2023-04-16T16:11:49.468Z,8.44
2023-04-16T16:12:49.504Z,8.61
2023-04-16T16:14:49.492Z,8.61
2023-04-16T16:15:49.485Z,8.61
2023-04-16T16:16:49.502Z,7.89
2023-04-16T16:17:49.563Z,8.33
2023-04-16T16:18:49.492Z,8.33
2023-04-16T16:20:49.510Z,8.17
2023-04-16T16:21:49.484Z,8.17
2023-04-16T16:22:49.501Z,8.17
2023-04-16T16:23:49.493Z,8
2023-04-16T16:24:49.487Z,8
2023-04-16T16:25:49.506Z,8.17
2023-04-16T16:26:49.562Z,7.89
2023-04-16T16:28:49.496Z,8
2023-04-16T16:29:49.514Z,7.89
2023-04-16T16:31:49.606Z,8
2023-04-16T16:32:49.514Z,7.44
2023-04-16T16:34:49.499Z,7.44
2023-04-16T16:36:49.540Z,7.72
2023-04-16T16:37:49.500Z,7.72
2023-04-16T16:38:49.498Z,7.61
2023-04-16T16:39:49.505Z,7.61
2023-04-16T16:40:49.523Z,7.61
2023-04-16T16:42:49.521Z,7.72
2023-04-16T16:43:49.501Z,7.72
2023-04-16T16:44:49.503Z,7.44
2023-04-16T16:45:49.508Z,7.33
2023-04-16T16:47:49.521Z,7.44
2023-04-16T16:48:49.503Z,7.33
2023-04-16T16:49:49.524Z,7.44
2023-04-16T16:50:49.526Z,7.44
2023-04-16T16:51:49.523Z,7.61